sensor_id;sensor_type;location;lat;lon;timestamp;pressure;altitude;pressure_sealevel;temperature;humidity
57374;BME280;43964;53.890;25.340;2023-08-06T00:00:39;1015.3;;;23.7;73
57374;BME280;43964;53.890;25.340;2023-08-06T00:05:53;1015.3;;;23.6;72.9
57374;BME280;43964;53.890;25.340;2023-08-06T00:11:03;1015.3;;;23.6;72.8
57374;BME280;43964;53.890;25.340;2023-08-06T00:15:39;1015.4;;;23.6;72.8
57374;BME280;43964;53.890;25.340;2023-08-06T00:20:31;1015.3;;;23.6;72.8
57374;BME280;43964;53.890;25.340;2023-08-06T00:26:03;1015.4;;;23.5;72.6
57374;BME280;43964;53.890;25.340;2023-08-06T00:30:25;1015.4;;;23.5;72.7
57374;BME280;43964;53.890;25.340;2023-08-06T00:35:41;1015.3;;;23.4;72.7
57374;BME280;43964;53.890;25.340;2023-08-06T00:40:31;1015.3;;;23.4;72.5
57374;BME280;43964;53.890;25.340;2023-08-06T00:50:33;1015.3;;;23.3;72.5
57374;BME280;43964;53.890;25.340;2023-08-06T00:55:31;1015.3;;;23.2;72.5
57374;BME280;43964;53.890;25.340;2023-08-06T01:01:03;1015.3;;;23.2;72.4
57374;BME280;43964;53.890;25.340;2023-08-06T01:05:53;1015.2;;;23.2;72.5
57374;BME280;43964;53.890;25.340;2023-08-06T01:15:43;1015.2;;;23.2;72.3
57374;BME280;43964;53.890;25.340;2023-08-06T01:21:03;1015.2;;;23.2;72.2
57374;BME280;43964;53.890;25.340;2023-08-06T01:25:40;1015.1;;;23.2;72.1
57374;BME280;43964;53.890;25.340;2023-08-06T01:30:33;1015.1;;;23.2;72
57374;BME280;43964;53.890;25.340;2023-08-06T01:36:03;1015;;;23.2;71.9
57374;BME280;43964;53.890;25.340;2023-08-06T01:40:53;1015;;;23.2;71.9
57374;BME280;43964;53.890;25.340;2023-08-06T01:46:03;1014.9;;;23.2;71.9
57374;BME280;43964;53.890;25.340;2023-08-06T01:50:53;1014.9;;;23.1;71.7
57374;BME280;43964;53.890;25.340;2023-08-06T01:55:31;1014.9;;;23.1;71.8
57374;BME280;43964;53.890;25.340;2023-08-06T02:00:31;1014.9;;;23.1;71.9
57374;BME280;43964;53.890;25.340;2023-08-06T02:06:03;1014.9;;;23.1;71.9
57374;BME280;43964;53.890;25.340;2023-08-06T02:15:51;1014.9;;;23.1;71.9
57374;BME280;43964;53.890;25.340;2023-08-06T02:21:03;1014.9;;;23;72
57374;BME280;43964;53.890;25.340;2023-08-06T02:25:56;1014.9;;;23;71.9
57374;BME280;43964;53.890;25.340;2023-08-06T02:30:25;1014.9;;;23;72
57374;BME280;43964;53.890;25.340;2023-08-06T02:35:31;1014.9;;;23.1;71.9
57374;BME280;43964;53.890;25.340;2023-08-06T02:41:03;1014.9;;;23;72.1
57374;BME280;43964;53.890;25.340;2023-08-06T02:46:03;1014.8;;;23.1;72
57374;BME280;43964;53.890;25.340;2023-08-06T02:51:03;1014.8;;;23.1;71.9
57374;BME280;43964;53.890;25.340;2023-08-06T02:56:03;1014.8;;;23.1;71.9
57374;BME280;43964;53.890;25.340;2023-08-06T03:00:27;1014.8;;;23.1;71.9
57374;BME280;43964;53.890;25.340;2023-08-06T03:06:03;1014.8;;;23.1;71.9
57374;BME280;43964;53.890;25.340;2023-08-06T03:10:27;1014.8;;;23.1;71.6
57374;BME280;43964;53.890;25.340;2023-08-06T03:16:03;1014.8;;;23.1;71.7
57374;BME280;43964;53.890;25.340;2023-08-06T03:20:49;1014.8;;;23.2;71.6
57374;BME280;43964;53.890;25.340;2023-08-06T03:25:37;1014.8;;;23.5;71.2
57374;BME280;43964;53.890;25.340;2023-08-06T03:31:03;1014.7;;;23.7;70.7
57374;BME280;43964;53.890;25.340;2023-08-06T03:35:25;1014.7;;;24;70.1
57374;BME280;43964;53.890;25.340;2023-08-06T03:40:31;1014.6;;;26;67
57374;BME280;43964;53.890;25.340;2023-08-06T03:50:47;1014.4;;;30.8;59.6
57374;BME280;43964;53.890;25.340;2023-08-06T03:55:49;1014.4;;;32.2;55.1
57374;BME280;43964;53.890;25.340;2023-08-06T04:00:57;1014.3;;;33.3;53.4
57374;BME280;43964;53.890;25.340;2023-08-06T04:05:47;1014.3;;;34.9;49.8
57374;BME280;43964;53.890;25.340;2023-08-06T04:10:39;1014.3;;;36;45.9
57374;BME280;43964;53.890;25.340;2023-08-06T04:15:51;1014.3;;;36.8;43
57374;BME280;43964;53.890;25.340;2023-08-06T04:25:25;1014.1;;;38.2;39.8
57374;BME280;43964;53.890;25.340;2023-08-06T04:36:03;1014.1;;;34.8;42.2
57374;BME280;43964;53.890;25.340;2023-08-06T04:40:43;1014;;;36.1;39.7
57374;BME280;43964;53.890;25.340;2023-08-06T04:45:25;1014;;;36.4;40
57374;BME280;43964;53.890;25.340;2023-08-06T04:50:49;1013.9;;;37.5;38.4
57374;BME280;43964;53.890;25.340;2023-08-06T04:55:39;1013.9;;;35.4;40.2
57374;BME280;43964;53.890;25.340;2023-08-06T05:00:39;1013.9;;;33.2;42.1
57374;BME280;43964;53.890;25.340;2023-08-06T05:05:53;1013.8;;;34.3;40.8
57374;BME280;43964;53.890;25.340;2023-08-06T05:15:33;1013.7;;;39.8;33.8
57374;BME280;43964;53.890;25.340;2023-08-06T05:35:35;1013.6;;;37.4;36
57374;BME280;43964;53.890;25.340;2023-08-06T05:45:53;1013.6;;;33.8;39.5
57374;BME280;43964;53.890;25.340;2023-08-06T05:50:39;1013.5;;;33.2;40.3
57374;BME280;43964;53.890;25.340;2023-08-06T05:55:31;1013.5;;;32.4;41.2
57374;BME280;43964;53.890;25.340;2023-08-06T06:00:53;1013.4;;;31.8;42.5
57374;BME280;43964;53.890;25.340;2023-08-06T06:05:53;1013.4;;;31.5;43.1
57374;BME280;43964;53.890;25.340;2023-08-06T06:11:03;1013.3;;;31.3;43.7
57374;BME280;43964;53.890;25.340;2023-08-06T06:15:43;1013.2;;;31;44.4
57374;BME280;43964;53.890;25.340;2023-08-06T06:20:43;1013.1;;;30.9;45.3
57374;BME280;43964;53.890;25.340;2023-08-06T06:25:25;1013;;;30.8;45.5
57374;BME280;43964;53.890;25.340;2023-08-06T06:31:03;1013.1;;;30.8;45.8
57374;BME280;43964;53.890;25.340;2023-08-06T06:35:53;1013;;;30.8;46.4
57374;BME280;43964;53.890;25.340;2023-08-06T06:40:53;1013;;;30.9;46.5
57374;BME280;43964;53.890;25.340;2023-08-06T06:46:03;1012.9;;;30.9;46.4
57374;BME280;43964;53.890;25.340;2023-08-06T06:50:49;1012.9;;;31.1;46.4
57374;BME280;43964;53.890;25.340;2023-08-06T06:55:31;1012.8;;;31.3;46.6
57374;BME280;43964;53.890;25.340;2023-08-06T07:00:25;1012.7;;;31.5;46.5
57374;BME280;43964;53.890;25.340;2023-08-06T07:06:03;1012.7;;;31.6;46.3
57374;BME280;43964;53.890;25.340;2023-08-06T07:10:49;1012.7;;;31.6;46.2
57374;BME280;43964;53.890;25.340;2023-08-06T07:16:03;1012.8;;;31.6;46.1
57374;BME280;43964;53.890;25.340;2023-08-06T07:21:03;1012.7;;;31.5;45.9
57374;BME280;43964;53.890;25.340;2023-08-06T07:25:45;1012.7;;;31.5;46
57374;BME280;43964;53.890;25.340;2023-08-06T07:30:49;1012.7;;;31.3;46
57374;BME280;43964;53.890;25.340;2023-08-06T07:35:53;1012.6;;;31.3;46.2
57374;BME280;43964;53.890;25.340;2023-08-06T07:45:49;1012.5;;;31.5;46.1
57374;BME280;43964;53.890;25.340;2023-08-06T08:00:53;1012.3;;;31.7;45.8
57374;BME280;43964;53.890;25.340;2023-08-06T08:10:25;1012.3;;;31.8;45.8
57374;BME280;43964;53.890;25.340;2023-08-06T08:15:49;1012.3;;;31.9;45.7
57374;BME280;43964;53.890;25.340;2023-08-06T08:25:35;1012.1;;;32;45.4
57374;BME280;43964;53.890;25.340;2023-08-06T08:30:25;1012.1;;;32.1;45.3
57374;BME280;43964;53.890;25.340;2023-08-06T08:40:33;1012;;;32.1;45
57374;BME280;43964;53.890;25.340;2023-08-06T08:50:33;1012;;;32.3;44.9
57374;BME280;43964;53.890;25.340;2023-08-06T08:55:49;1011.9;;;32.5;44.6
57374;BME280;43964;53.890;25.340;2023-08-06T09:01:03;1011.9;;;32.6;43.8
57374;BME280;43964;53.890;25.340;2023-08-06T09:05:53;1011.9;;;32.6;43.7
57374;BME280;43964;53.890;25.340;2023-08-06T09:10:25;1011.8;;;32.7;43.9
57374;BME280;43964;53.890;25.340;2023-08-06T09:15:49;1011.8;;;32.8;43.7
57374;BME280;43964;53.890;25.340;2023-08-06T09:20:39;1011.7;;;32.8;43.4
57374;BME280;43964;53.890;25.340;2023-08-06T09:25:25;1011.6;;;32.8;43.3
57374;BME280;43964;53.890;25.340;2023-08-06T09:30:53;1011.6;;;32.9;42.9
57374;BME280;43964;53.890;25.340;2023-08-06T09:36:07;1011.5;;;33.1;42.9
57374;BME280;43964;53.890;25.340;2023-08-06T09:40:31;1011.5;;;33;42.7
57374;BME280;43964;53.890;25.340;2023-08-06T09:45:43;1011.4;;;33;42.8
57374;BME280;43964;53.890;25.340;2023-08-06T09:55:53;1011.2;;;33.2;42
57374;BME280;43964;53.890;25.340;2023-08-06T10:11:03;1011.2;;;33.2;41.7
57374;BME280;43964;53.890;25.340;2023-08-06T10:20:25;1010.9;;;33.5;40.4
57374;BME280;43964;53.890;25.340;2023-08-06T10:25:53;1010.8;;;33.5;40.1
57374;BME280;43964;53.890;25.340;2023-08-06T10:36:03;1010.7;;;33.7;40.1
57374;BME280;43964;53.890;25.340;2023-08-06T10:50:31;1010.5;;;33.9;39
57374;BME280;43964;53.890;25.340;2023-08-06T11:00:53;1010.4;;;34;38.8
57374;BME280;43964;53.890;25.340;2023-08-06T11:25:55;1010.1;;;34.1;38.7
57374;BME280;43964;53.890;25.340;2023-08-06T11:31:03;1010.1;;;34;38.3
57374;BME280;43964;53.890;25.340;2023-08-06T11:36:03;1010;;;34.1;38.3
57374;BME280;43964;53.890;25.340;2023-08-06T11:41:03;1009.9;;;34.2;38.1
57374;BME280;43964;53.890;25.340;2023-08-06T11:46:05;1009.9;;;34.3;37.8
57374;BME280;43964;53.890;25.340;2023-08-06T12:30:39;1009.1;;;34.3;38
57374;BME280;43964;53.890;25.340;2023-08-06T12:35:25;1009;;;34.3;37.7
57374;BME280;43964;53.890;25.340;2023-08-06T12:55:31;1008.7;;;34.4;37.4
57374;BME280;43964;53.890;25.340;2023-08-06T13:00:25;1008.7;;;34.2;37.5
57374;BME280;43964;53.890;25.340;2023-08-06T13:05:31;1008.7;;;34.1;37.4
57374;BME280;43964;53.890;25.340;2023-08-06T13:10:39;1008.6;;;34.1;37.3
57374;BME280;43964;53.890;25.340;2023-08-06T13:15:39;1008.4;;;34.1;37.5
57374;BME280;43964;53.890;25.340;2023-08-06T13:20:49;1008.5;;;34.1;37.6
57374;BME280;43964;53.890;25.340;2023-08-06T13:26:05;1008.4;;;34.1;37.5
57374;BME280;43964;53.890;25.340;2023-08-06T13:30:29;1008.3;;;34.2;37.3
57374;BME280;43964;53.890;25.340;2023-08-06T13:35:25;1008.3;;;34.2;37.1
57374;BME280;43964;53.890;25.340;2023-08-06T13:41:05;1008.3;;;34.2;36.8
57374;BME280;43964;53.890;25.340;2023-08-06T13:45:39;1008.2;;;34.3;36.9
57374;BME280;43964;53.890;25.340;2023-08-06T13:50:39;1008.1;;;34.2;36.9
57374;BME280;43964;53.890;25.340;2023-08-06T13:55:39;1008.1;;;34.1;36.8
57374;BME280;43964;53.890;25.340;2023-08-06T14:00:55;1008.2;;;34;36.7
57374;BME280;43964;53.890;25.340;2023-08-06T14:05:31;1008.1;;;34.1;36.6
57374;BME280;43964;53.890;25.340;2023-08-06T14:10:25;1008.2;;;34;36.6
57374;BME280;43964;53.890;25.340;2023-08-06T14:16:05;1008.2;;;34.1;36.6
57374;BME280;43964;53.890;25.340;2023-08-06T14:20:55;1008.2;;;34.2;36.7
57374;BME280;43964;53.890;25.340;2023-08-06T14:25:41;1008.2;;;34.4;36.5
57374;BME280;43964;53.890;25.340;2023-08-06T14:30:45;1008.1;;;34.4;36.4
57374;BME280;43964;53.890;25.340;2023-08-06T14:36:05;1008.1;;;34.4;36.3
57374;BME280;43964;53.890;25.340;2023-08-06T14:40:31;1008.1;;;34.4;36.1
57374;BME280;43964;53.890;25.340;2023-08-06T14:45:37;1008.2;;;34.4;36.3
57374;BME280;43964;53.890;25.340;2023-08-06T14:50:55;1008.1;;;34.2;36.3
57374;BME280;43964;53.890;25.340;2023-08-06T14:56:05;1008.1;;;34;36.7
57374;BME280;43964;53.890;25.340;2023-08-06T15:01:05;1008;;;33.8;37.1
57374;BME280;43964;53.890;25.340;2023-08-06T15:05:46;1008;;;33.8;37.5
57374;BME280;43964;53.890;25.340;2023-08-06T15:10:25;1007.9;;;33.9;37.5
57374;BME280;43964;53.890;25.340;2023-08-06T15:15:26;1007.9;;;33.9;37.5
57374;BME280;43964;53.890;25.340;2023-08-06T15:25:55;1007.8;;;33.6;37.6
57374;BME280;43964;53.890;25.340;2023-08-06T15:30:55;1007.9;;;33.6;37.8
57374;BME280;43964;53.890;25.340;2023-08-06T15:36:03;1007.8;;;33.5;37.9
57374;BME280;43964;53.890;25.340;2023-08-06T15:45:25;1007.8;;;33.4;38.2
57374;BME280;43964;53.890;25.340;2023-08-06T15:50:47;1007.7;;;33.4;38.2
57374;BME280;43964;53.890;25.340;2023-08-06T15:55:49;1007.7;;;33.4;38.3
57374;BME280;43964;53.890;25.340;2023-08-06T16:01:05;1007.6;;;33.3;38.4
57374;BME280;43964;53.890;25.340;2023-08-06T16:06:05;1007.5;;;33.3;38.6
57374;BME280;43964;53.890;25.340;2023-08-06T16:11:05;1007.5;;;33.2;38.8
57374;BME280;43964;53.890;25.340;2023-08-06T16:15:55;1007.5;;;33.2;39
57374;BME280;43964;53.890;25.340;2023-08-06T16:20:49;1007.6;;;33.1;39.2
57374;BME280;43964;53.890;25.340;2023-08-06T16:25:55;1007.6;;;33;39.3
57374;BME280;43964;53.890;25.340;2023-08-06T16:31:05;1007.6;;;32.9;39.6
57374;BME280;43964;53.890;25.340;2023-08-06T16:35:49;1007.6;;;32.9;39.7
57374;BME280;43964;53.890;25.340;2023-08-06T16:40:25;1007.6;;;32.8;39.9
57374;BME280;43964;53.890;25.340;2023-08-06T16:46:05;1007.5;;;32.7;40
57374;BME280;43964;53.890;25.340;2023-08-06T16:50:49;1007.5;;;32.6;40.1
57374;BME280;43964;53.890;25.340;2023-08-06T16:55:31;1007.5;;;32.5;40.2
57374;BME280;43964;53.890;25.340;2023-08-06T17:00:35;1007.4;;;32.4;40.4
57374;BME280;43964;53.890;25.340;2023-08-06T17:05:33;1007.4;;;32.3;40.5
57374;BME280;43964;53.890;25.340;2023-08-06T17:10:43;1007.2;;;32.2;40.7
57374;BME280;43964;53.890;25.340;2023-08-06T17:15:27;1007.2;;;32.1;40.9
57374;BME280;43964;53.890;25.340;2023-08-06T17:21:05;1007.1;;;32;41
57374;BME280;43964;53.890;25.340;2023-08-06T17:25:33;1007.2;;;31.9;41.2
57374;BME280;43964;53.890;25.340;2023-08-06T17:35:40;1007;;;31.7;41.4
57374;BME280;43964;53.890;25.340;2023-08-06T17:40:33;1006.9;;;31.5;41.5
57374;BME280;43964;53.890;25.340;2023-08-06T17:45:55;1006.8;;;31.4;41.8
57374;BME280;43964;53.890;25.340;2023-08-06T17:51:05;1006.8;;;31.3;42.3
57374;BME280;43964;53.890;25.340;2023-08-06T17:55:31;1006.8;;;31.1;42.6
57374;BME280;43964;53.890;25.340;2023-08-06T18:00:25;1006.7;;;31;43
57374;BME280;43964;53.890;25.340;2023-08-06T18:06:05;1006.7;;;30.9;43.4
57374;BME280;43964;53.890;25.340;2023-08-06T18:10:49;1006.7;;;30.8;43.8
57374;BME280;43964;53.890;25.340;2023-08-06T18:15:25;1006.7;;;30.6;44.1
57374;BME280;43964;53.890;25.340;2023-08-06T18:20:49;1006.7;;;30.5;44.4
57374;BME280;43964;53.890;25.340;2023-08-06T18:25:55;1006.7;;;30.4;44.5
57374;BME280;43964;53.890;25.340;2023-08-06T18:30:25;1006.6;;;30.4;44.7
57374;BME280;43964;53.890;25.340;2023-08-06T18:35:25;1006.6;;;30.3;44.8
57374;BME280;43964;53.890;25.340;2023-08-06T18:41:05;1006.5;;;30.2;45
57374;BME280;43964;53.890;25.340;2023-08-06T18:45:49;1006.4;;;30.2;45.1
57374;BME280;43964;53.890;25.340;2023-08-06T18:50:49;1006.3;;;30.1;45.5
57374;BME280;43964;53.890;25.340;2023-08-06T18:55:46;1006.3;;;30.1;45.8
57374;BME280;43964;53.890;25.340;2023-08-06T19:01:03;1006.2;;;30;46.1
57374;BME280;43964;53.890;25.340;2023-08-06T19:05:25;1006.3;;;29.9;46.3
57374;BME280;43964;53.890;25.340;2023-08-06T19:10:25;1006.1;;;29.8;46.5
57374;BME280;43964;53.890;25.340;2023-08-06T19:15:55;1006.1;;;29.8;46.6
57374;BME280;43964;53.890;25.340;2023-08-06T19:20:55;1006;;;29.7;46.7
57374;BME280;43964;53.890;25.340;2023-08-06T19:26:03;1006;;;29.7;46.8
57374;BME280;43964;53.890;25.340;2023-08-06T19:30:25;1005.8;;;29.6;46.9
57374;BME280;43964;53.890;25.340;2023-08-06T19:35:31;1005.8;;;29.6;47
57374;BME280;43964;53.890;25.340;2023-08-06T19:40:31;1005.8;;;29.5;47.5
57374;BME280;43964;53.890;25.340;2023-08-06T19:46:05;1005.6;;;29.5;47.6
57374;BME280;43964;53.890;25.340;2023-08-06T19:50:55;1005.6;;;29.5;47.5
57374;BME280;43964;53.890;25.340;2023-08-06T19:55:47;1005.6;;;29.5;47.5
57374;BME280;43964;53.890;25.340;2023-08-06T20:01:05;1005.4;;;29.5;47.5
57374;BME280;43964;53.890;25.340;2023-08-06T20:05:55;1005.3;;;29.4;47.5
57374;BME280;43964;53.890;25.340;2023-08-06T20:10:31;1005.4;;;29.4;47.5
57374;BME280;43964;53.890;25.340;2023-08-06T20:15:35;1005.3;;;29.4;47.6
57374;BME280;43964;53.890;25.340;2023-08-06T20:21:03;1005.3;;;29.4;47.8
57374;BME280;43964;53.890;25.340;2023-08-06T20:26:05;1005.3;;;29.3;48
57374;BME280;43964;53.890;25.340;2023-08-06T20:31:05;1005.4;;;29.3;48.1
57374;BME280;43964;53.890;25.340;2023-08-06T20:36:05;1005.6;;;29.3;48.1
57374;BME280;43964;53.890;25.340;2023-08-06T20:45:31;1005.5;;;29.2;47.6
57374;BME280;43964;53.890;25.340;2023-08-06T20:50:55;1006;;;29.2;48.1
57374;BME280;43964;53.890;25.340;2023-08-06T20:56:05;1006.1;;;29.2;48.7
57374;BME280;43964;53.890;25.340;2023-08-06T21:00:49;1005.8;;;29;50
57374;BME280;43964;53.890;25.340;2023-08-06T21:05:31;1005.5;;;28.7;50.7
57374;BME280;43964;53.890;25.340;2023-08-06T21:11:05;1005.3;;;28.5;51.3
57374;BME280;43964;53.890;25.340;2023-08-06T21:15:56;1005.1;;;28.2;51.8
57374;BME280;43964;53.890;25.340;2023-08-06T21:20:25;1005;;;28;51.7
57374;BME280;43964;53.890;25.340;2023-08-06T21:25:39;1004.9;;;27.8;52.1
57374;BME280;43964;53.890;25.340;2023-08-06T21:30:39;1004.8;;;27.6;53.3
57374;BME280;43964;53.890;25.340;2023-08-06T21:35:33;1004.8;;;27.6;53.6
57374;BME280;43964;53.890;25.340;2023-08-06T21:41:06;1004.8;;;27.6;53.6
57374;BME280;43964;53.890;25.340;2023-08-06T21:45:45;1004.7;;;27.5;53.8
57374;BME280;43964;53.890;25.340;2023-08-06T21:50:25;1004.6;;;27.5;53.9
57374;BME280;43964;53.890;25.340;2023-08-06T21:55:49;1004.6;;;27.4;54.1
57374;BME280;43964;53.890;25.340;2023-08-06T22:00:33;1004.6;;;27.4;54.2
57374;BME280;43964;53.890;25.340;2023-08-06T22:05:40;1004.5;;;27.4;54.4
57374;BME280;43964;53.890;25.340;2023-08-06T22:10:51;1004.4;;;27.3;54.8
57374;BME280;43964;53.890;25.340;2023-08-06T22:16:03;1004.7;;;27.3;55.2
57374;BME280;43964;53.890;25.340;2023-08-06T22:20:47;1005.1;;;27.2;55.8
57374;BME280;43964;53.890;25.340;2023-08-06T22:25:23;1005.2;;;27.1;56.1
57374;BME280;43964;53.890;25.340;2023-08-06T22:31:03;1005.4;;;27;56.3
57374;BME280;43964;53.890;25.340;2023-08-06T22:35:23;1005.2;;;26.9;56.5
57374;BME280;43964;53.890;25.340;2023-08-06T22:40:37;1005.2;;;26.9;56.4
57374;BME280;43964;53.890;25.340;2023-08-06T22:45:23;1005.1;;;26.9;56.4
57374;BME280;43964;53.890;25.340;2023-08-06T22:50:53;1005.2;;;27;56.3
57374;BME280;43964;53.890;25.340;2023-08-06T22:55:23;1005.1;;;27;56.3
57374;BME280;43964;53.890;25.340;2023-08-06T23:00:43;1005;;;26.9;56.3
57374;BME280;43964;53.890;25.340;2023-08-06T23:06:03;1004.8;;;26.9;56.4
57374;BME280;43964;53.890;25.340;2023-08-06T23:10:53;1005;;;26.8;56.6
57374;BME280;43964;53.890;25.340;2023-08-06T23:15:31;1004.8;;;26.7;56.8
57374;BME280;43964;53.890;25.340;2023-08-06T23:20:29;1004.8;;;26.7;56.8
57374;BME280;43964;53.890;25.340;2023-08-06T23:26:03;1004.8;;;26.6;56.8
57374;BME280;43964;53.890;25.340;2023-08-06T23:30:23;1004.9;;;26.6;56.8
57374;BME280;43964;53.890;25.340;2023-08-06T23:35:23;1004.7;;;26.6;56.8
57374;BME280;43964;53.890;25.340;2023-08-06T23:40:39;1004.6;;;26.5;56.8
57374;BME280;43964;53.890;25.340;2023-08-06T23:45:53;1004.5;;;26.4;56.8
57374;BME280;43964;53.890;25.340;2023-08-06T23:51:03;1004.4;;;26.5;56.8
57374;BME280;43964;53.890;25.340;2023-08-06T23:55:43;1004.3;;;26.5;56.8
